createdAt,value
2022-11-09T00:02:25.684Z,12.86
2022-11-09T00:04:59.401Z,12.90
2022-11-09T00:07:33.299Z,12.90
2022-11-09T00:10:09.595Z,13.09
2022-11-09T00:12:43.211Z,13.18
2022-11-09T00:15:17.085Z,12.80
2022-11-09T00:17:49.902Z,13.15
2022-11-09T00:20:23.554Z,13.29
2022-11-09T00:22:56.385Z,13.09
2022-11-09T00:25:31.494Z,13.17
2022-11-09T00:28:05.249Z,13.09
2022-11-09T00:30:39.148Z,12.67
2022-11-09T00:33:12.306Z,12.82
2022-11-09T00:35:46.396Z,12.46
2022-11-09T00:38:19.578Z,12.53
2022-11-09T00:40:54.843Z,12.55
2022-11-09T00:43:28.389Z,12.38
2022-11-09T00:46:02.087Z,12.52
2022-11-09T00:48:36.808Z,12.72
2022-11-09T00:51:11.767Z,12.56
2022-11-09T00:53:47.364Z,12.70
2022-11-09T00:56:22.959Z,12.66
2022-11-09T00:58:57.016Z,12.87
2022-11-09T01:01:30.875Z,12.82
2022-11-09T01:04:04.410Z,12.76
2022-11-09T01:06:38.121Z,12.63
2022-11-09T01:09:12.863Z,12.64
2022-11-09T01:11:48.118Z,12.87
2022-11-09T01:14:21.666Z,12.91
2022-11-09T01:16:55.424Z,12.92
2022-11-09T01:19:28.292Z,12.87
2022-11-09T01:22:01.917Z,12.85
2022-11-09T01:24:35.696Z,13.03
2022-11-09T01:27:10.941Z,12.98
2022-11-09T01:29:44.475Z,12.69
2022-11-09T01:32:17.729Z,12.83
2022-11-09T01:34:51.350Z,12.86
2022-11-09T01:37:25.164Z,12.94
2022-11-09T01:39:58.858Z,13.03
2022-11-09T01:42:38.188Z,12.88
2022-11-09T01:45:25.077Z,13.05
2022-11-09T01:48:04.713Z,13.04
2022-11-09T01:50:47.879Z,13.14
2022-11-09T01:53:24.955Z,12.90
2022-11-09T01:56:03.180Z,13.00
2022-11-09T01:58:46.034Z,13.02
2022-11-09T02:01:20.336Z,12.80
2022-11-09T02:03:58.671Z,12.88
2022-11-09T02:06:33.533Z,13.01
2022-11-09T02:09:14.327Z,13.14
2022-11-09T02:11:47.236Z,12.77
2022-11-09T02:14:24.261Z,12.95
2022-11-09T02:16:57.753Z,13.01
2022-11-09T02:19:30.646Z,12.84
2022-11-09T02:22:05.772Z,13.05
2022-11-09T02:24:39.737Z,12.71
2022-11-09T02:27:13.287Z,12.91
2022-11-09T02:29:50.225Z,12.81
2022-11-09T02:32:25.940Z,12.87
2022-11-09T02:34:59.480Z,12.91
2022-11-09T02:37:38.937Z,13.03
2022-11-09T02:40:19.014Z,12.99
2022-11-09T02:42:51.831Z,13.11
2022-11-09T02:45:25.584Z,13.13
2022-11-09T02:47:59.327Z,13.26
2022-11-09T02:50:33.066Z,13.14
2022-11-09T02:53:08.028Z,13.11
2022-11-09T02:55:41.791Z,12.85
2022-11-09T02:58:15.411Z,13.11
2022-11-09T03:00:49.167Z,13.02
2022-11-09T03:03:22.918Z,12.70
2022-11-09T03:05:56.971Z,12.80
2022-11-09T03:08:31.984Z,12.95
2022-11-09T03:11:06.996Z,13.03
2022-11-09T03:13:39.863Z,12.68
2022-11-09T03:16:14.190Z,12.93
2022-11-09T03:18:47.726Z,13.25
2022-11-09T03:21:22.087Z,12.93
2022-11-09T03:23:57.249Z,12.62
2022-11-09T03:26:31.156Z,12.91
2022-11-09T03:29:04.766Z,12.74
2022-11-09T03:31:38.524Z,13.00
2022-11-09T03:34:12.152Z,13.05
2022-11-09T03:36:46.338Z,12.97
2022-11-09T03:39:21.314Z,12.91
2022-11-09T03:41:55.169Z,12.69
2022-11-09T03:44:28.747Z,12.89
2022-11-09T03:47:01.626Z,12.89
2022-11-09T03:49:35.111Z,13.00
2022-11-09T03:52:09.041Z,12.63
2022-11-09T03:54:43.386Z,12.99
2022-11-09T03:57:17.166Z,13.22
2022-11-09T03:59:50.803Z,13.20
2022-11-09T04:02:24.570Z,13.09
2022-11-09T04:04:58.125Z,12.89
2022-11-09T04:07:31.110Z,12.95
2022-11-09T04:10:08.528Z,13.10
2022-11-09T04:12:41.368Z,12.79
2022-11-09T04:15:17.148Z,13.00
2022-11-09T04:17:58.006Z,12.93
2022-11-09T04:20:33.369Z,12.85
2022-11-09T04:23:08.295Z,12.76
2022-11-09T04:25:44.034Z,12.83
2022-11-09T04:28:17.799Z,12.89
2022-11-09T04:30:51.425Z,13.06
2022-11-09T04:33:25.144Z,12.87
2022-11-09T04:36:03.898Z,12.87
2022-11-09T04:38:38.103Z,12.91
2022-11-09T04:41:16.512Z,12.80
2022-11-09T04:43:49.520Z,12.72
2022-11-09T04:46:23.163Z,12.60
2022-11-09T04:48:57.075Z,12.61
2022-11-09T04:51:30.636Z,12.63
2022-11-09T04:54:04.599Z,12.63
2022-11-09T04:56:39.628Z,12.46
2022-11-09T04:59:13.452Z,12.46
2022-11-09T05:01:47.112Z,12.57
2022-11-09T05:04:20.853Z,12.49
2022-11-09T05:06:54.583Z,12.52
2022-11-09T05:09:28.265Z,12.64
2022-11-09T05:12:03.258Z,12.82
2022-11-09T05:14:38.358Z,12.73
2022-11-09T05:17:11.886Z,12.73
2022-11-09T05:19:45.574Z,12.76
2022-11-09T05:22:38.876Z,12.61
2022-11-09T05:25:12.564Z,12.67
2022-11-09T05:27:47.637Z,12.74
2022-11-09T05:30:21.695Z,12.77
2022-11-09T05:32:54.856Z,12.94
2022-11-09T05:35:28.965Z,12.82
2022-11-09T05:38:02.207Z,12.61
2022-11-09T05:40:35.937Z,12.80
2022-11-09T05:43:10.980Z,12.87
2022-11-09T05:45:45.044Z,12.86
2022-11-09T05:48:19.648Z,12.84
2022-11-09T05:50:53.268Z,12.83
2022-11-09T05:53:26.877Z,13.03
2022-11-09T05:56:05.199Z,13.08
2022-11-09T05:58:41.622Z,13.08
2022-11-09T06:01:17.042Z,13.00
2022-11-09T06:03:50.639Z,12.84
2022-11-09T06:06:24.486Z,12.79
2022-11-09T06:08:58.087Z,12.82
2022-11-09T06:11:31.998Z,13.05
2022-11-09T06:14:07.060Z,12.75
2022-11-09T06:16:40.720Z,12.87
2022-11-09T06:19:14.312Z,12.60
2022-11-09T06:21:47.960Z,12.81
2022-11-09T06:24:21.619Z,12.95
2022-11-09T06:26:54.470Z,12.85
2022-11-09T06:29:29.293Z,12.79
2022-11-09T06:32:02.150Z,12.65
2022-11-09T06:34:35.877Z,12.74
2022-11-09T06:37:08.719Z,12.86
2022-11-09T06:39:41.759Z,12.82
2022-11-09T06:42:16.571Z,12.94
2022-11-09T06:44:51.711Z,12.81
2022-11-09T06:47:25.647Z,12.59
2022-11-09T06:49:58.489Z,12.80
2022-11-09T06:52:32.462Z,12.76
2022-11-09T06:55:05.879Z,12.40
2022-11-09T06:57:39.949Z,12.44
2022-11-09T07:00:15.873Z,12.61
2022-11-09T07:02:48.822Z,12.58
2022-11-09T07:05:21.873Z,12.24
2022-11-09T07:07:54.885Z,12.41
2022-11-09T07:10:27.815Z,12.45
2022-11-09T07:13:00.837Z,12.55
2022-11-09T07:15:36.478Z,12.69
2022-11-09T07:18:13.298Z,12.46
2022-11-09T07:20:46.246Z,12.65
2022-11-09T07:23:19.674Z,12.46
2022-11-09T07:25:53.491Z,12.40
2022-11-09T07:28:26.396Z,12.51
2022-11-09T07:31:01.043Z,12.47
2022-11-09T07:33:34.139Z,12.73
2022-11-09T07:36:07.845Z,12.66
2022-11-09T07:38:41.198Z,12.74
2022-11-09T07:41:17.019Z,12.29
2022-11-09T07:43:51.353Z,12.49
2022-11-09T07:46:25.858Z,12.28
2022-11-09T07:48:58.806Z,12.41
2022-11-09T07:51:31.773Z,12.52
2022-11-09T07:54:05.026Z,12.65
2022-11-09T07:56:38.838Z,12.61
2022-11-09T07:59:11.683Z,12.39
2022-11-09T08:01:45.928Z,12.37
2022-11-09T08:04:18.798Z,12.30
2022-11-09T08:06:54.371Z,12.51
2022-11-09T08:09:27.278Z,12.21
2022-11-09T08:12:00.101Z,12.13
2022-11-09T08:14:34.778Z,12.28
2022-11-09T08:17:08.946Z,12.26
2022-11-09T08:19:41.903Z,12.48
2022-11-09T08:22:15.583Z,12.58
2022-11-09T08:24:48.948Z,12.57
2022-11-09T08:27:22.860Z,12.66
2022-11-09T08:29:56.622Z,12.73
2022-11-09T08:32:31.670Z,12.76
2022-11-09T08:35:05.515Z,12.65
2022-11-09T08:37:39.167Z,12.59
2022-11-09T08:40:12.824Z,12.49
2022-11-09T08:42:45.709Z,12.80
2022-11-09T08:45:19.107Z,12.87
2022-11-09T08:47:58.881Z,13.02
2022-11-09T08:50:34.411Z,13.13
2022-11-09T08:53:08.869Z,13.51
2022-11-09T08:55:43.842Z,13.48
2022-11-09T08:58:21.934Z,13.62
2022-11-09T09:00:54.988Z,13.51
2022-11-09T09:03:29.941Z,13.21
2022-11-09T09:06:05.164Z,13.42
2022-11-09T09:08:38.671Z,13.94
2022-11-09T09:11:12.461Z,14.32
2022-11-09T09:13:45.291Z,14.25
2022-11-09T09:16:19.056Z,14.42
2022-11-09T09:18:53.381Z,15.05
2022-11-09T09:21:26.314Z,15.48
2022-11-09T09:23:59.151Z,15.55
2022-11-09T09:26:32.057Z,15.18
2022-11-09T09:29:04.926Z,15.11
2022-11-09T09:31:37.738Z,14.42
2022-11-09T09:34:12.549Z,14.27
2022-11-09T09:36:48.187Z,14.82
2022-11-09T09:39:21.758Z,15.06
2022-11-09T09:41:57.140Z,15.36
2022-11-09T09:44:34.511Z,15.58
2022-11-09T09:47:13.498Z,15.98
2022-11-09T09:49:53.678Z,15.76
2022-11-09T09:52:38.743Z,16.04
2022-11-09T09:55:20.885Z,15.76
2022-11-09T09:57:56.710Z,15.58
2022-11-09T10:00:29.694Z,15.70
2022-11-09T10:03:03.227Z,15.60
2022-11-09T10:05:49.937Z,15.82
2022-11-09T10:08:31.856Z,16.05
2022-11-09T10:11:17.832Z,15.69
2022-11-09T10:14:10.634Z,15.93
2022-11-09T10:16:54.766Z,16.12
2022-11-09T10:19:37.110Z,15.57
2022-11-09T10:22:19.202Z,16.03
2022-11-09T10:25:20.823Z,15.41
2022-11-09T10:27:55.165Z,15.70
2022-11-09T10:30:30.121Z,15.62
2022-11-09T10:33:16.394Z,15.69
2022-11-09T10:35:56.263Z,15.38
2022-11-09T10:38:36.828Z,15.27
2022-11-09T10:41:19.474Z,15.29
2022-11-09T10:43:52.385Z,15.43
2022-11-09T10:46:25.946Z,15.34
2022-11-09T10:48:58.902Z,15.29
2022-11-09T10:51:40.397Z,15.05
2022-11-09T10:54:21.636Z,15.46
2022-11-09T10:57:12.963Z,15.26
2022-11-09T10:59:50.250Z,15.36
2022-11-09T11:02:46.414Z,15.38
2022-11-09T11:05:26.667Z,15.34
2022-11-09T11:08:04.311Z,15.42
2022-11-09T11:10:38.617Z,15.69
2022-11-09T11:13:26.152Z,15.39
2022-11-09T11:16:00.504Z,15.74
2022-11-09T11:18:37.325Z,15.68
2022-11-09T11:21:18.819Z,15.86
2022-11-09T11:24:13.178Z,15.45
2022-11-09T11:27:06.621Z,16.07
2022-11-09T11:29:50.819Z,15.84
2022-11-09T11:32:25.170Z,15.76
2022-11-09T11:35:00.819Z,15.95
2022-11-09T11:37:47.469Z,16.39
2022-11-09T11:40:27.321Z,16.07
2022-11-09T11:43:22.443Z,16.67
2022-11-09T11:46:04.781Z,16.82
2022-11-09T11:49:04.479Z,16.27
2022-11-09T11:51:48.449Z,16.19
2022-11-09T11:54:32.081Z,16.31
2022-11-09T11:57:29.134Z,16.38
2022-11-09T12:00:13.023Z,16.04
2022-11-09T12:03:20.020Z,16.13
2022-11-09T12:06:15.514Z,16.20
2022-11-09T12:09:06.923Z,16.11
2022-11-09T12:11:56.492Z,16.46
2022-11-09T12:14:38.032Z,16.61
2022-11-09T12:17:22.536Z,16.88
2022-11-09T12:20:18.114Z,16.86
2022-11-09T12:23:02.154Z,17.18
2022-11-09T12:25:43.458Z,17.51
2022-11-09T12:28:31.837Z,17.72
2022-11-09T12:31:15.857Z,17.61
2022-11-09T12:33:55.632Z,17.36
2022-11-09T12:36:35.707Z,17.70
2022-11-09T12:39:16.484Z,17.76
2022-11-09T12:41:52.736Z,17.60
2022-11-09T12:44:29.921Z,17.27
2022-11-09T12:47:08.142Z,18.00
2022-11-09T12:49:45.186Z,17.96
2022-11-09T12:52:26.859Z,18.25
2022-11-09T12:55:05.182Z,18.33
2022-11-09T12:57:38.825Z,18.68
2022-11-09T13:00:50.036Z,18.83
2022-11-09T13:03:30.363Z,18.69
2022-11-09T13:06:18.319Z,18.35
2022-11-09T13:09:01.750Z,17.57
2022-11-09T13:11:39.394Z,16.60
2022-11-09T13:14:36.451Z,17.09
2022-11-09T13:17:48.930Z,16.65
2022-11-09T13:20:59.961Z,16.93
2022-11-09T13:24:01.420Z,16.94
2022-11-09T13:26:56.475Z,17.46
2022-11-09T13:29:31.158Z,17.11
2022-11-09T13:32:27.661Z,17.56
2022-11-09T13:35:02.270Z,17.41
2022-11-09T13:37:58.175Z,17.17
2022-11-09T13:40:53.599Z,17.30
2022-11-09T13:43:30.086Z,17.01
2022-11-09T13:46:04.990Z,17.22
2022-11-09T13:48:43.653Z,17.36
2022-11-09T13:51:20.148Z,17.84
2022-11-09T13:53:56.788Z,18.15
2022-11-09T13:56:37.594Z,18.04
2022-11-09T13:59:18.270Z,17.69
2022-11-09T14:01:54.222Z,17.33
2022-11-09T14:04:28.993Z,16.95
2022-11-09T14:07:05.482Z,16.83
2022-11-09T14:09:48.820Z,16.93
2022-11-09T14:12:38.417Z,16.94
2022-11-09T14:15:22.944Z,16.81
2022-11-09T14:18:11.055Z,16.81
2022-11-09T14:20:55.519Z,17.15
2022-11-09T14:23:31.631Z,17.41
2022-11-09T14:26:08.513Z,16.73
2022-11-09T14:28:43.643Z,16.92
2022-11-09T14:31:24.774Z,16.61
2022-11-09T14:34:02.988Z,16.44
2022-11-09T14:36:37.196Z,16.20
2022-11-09T14:39:24.441Z,16.32
2022-11-09T14:41:58.285Z,16.49
2022-11-09T14:44:40.582Z,16.20
2022-11-09T14:47:19.183Z,16.46
2022-11-09T14:49:53.419Z,16.16
2022-11-09T14:52:30.433Z,16.26
2022-11-09T14:55:04.567Z,16.28
2022-11-09T14:57:39.649Z,15.78
2022-11-09T15:00:31.548Z,15.62
2022-11-09T15:03:24.267Z,15.53
2022-11-09T15:06:08.902Z,15.22
2022-11-09T15:08:52.189Z,15.38
2022-11-09T15:11:32.977Z,15.06
2022-11-09T15:14:13.723Z,15.26
2022-11-09T15:16:49.188Z,15.17
2022-11-09T15:19:25.020Z,15.32
2022-11-09T15:21:58.886Z,15.18
2022-11-09T15:24:47.873Z,15.05
2022-11-09T15:27:34.174Z,14.80
2022-11-09T15:30:23.244Z,15.05
2022-11-09T15:32:58.724Z,15.06
2022-11-09T15:35:31.669Z,15.31
2022-11-09T15:38:05.687Z,15.56
2022-11-09T15:40:38.707Z,15.47
2022-11-09T15:43:12.487Z,15.75
2022-11-09T15:45:46.198Z,15.74
2022-11-09T15:48:22.538Z,15.59
2022-11-09T15:50:56.685Z,15.49
2022-11-09T15:53:30.284Z,15.45
2022-11-09T15:56:04.058Z,15.07
2022-11-09T15:58:38.573Z,15.25
2022-11-09T16:01:13.277Z,14.96
2022-11-09T16:03:48.144Z,15.05
2022-11-09T16:06:24.054Z,14.68
2022-11-09T16:08:57.624Z,14.71
2022-11-09T16:11:31.846Z,14.80
2022-11-09T16:14:04.826Z,14.74
2022-11-09T16:16:38.640Z,14.76
2022-11-09T16:19:15.841Z,14.68
2022-11-09T16:21:49.527Z,14.58
2022-11-09T16:24:23.318Z,14.64
2022-11-09T16:26:57.046Z,14.42
2022-11-09T16:29:31.681Z,14.43
2022-11-09T16:32:04.812Z,14.31
2022-11-09T16:34:39.869Z,13.94
2022-11-09T16:37:13.174Z,14.29
2022-11-09T16:39:46.889Z,14.24
2022-11-09T16:42:19.975Z,14.18
2022-11-09T16:44:53.911Z,14.30
2022-11-09T16:47:26.861Z,14.17
2022-11-09T16:50:01.641Z,14.16
2022-11-09T16:52:34.475Z,14.40
2022-11-09T16:55:09.779Z,14.38
2022-11-09T16:57:43.759Z,14.33
2022-11-09T17:00:23.387Z,14.10
2022-11-09T17:02:57.332Z,14.22
2022-11-09T17:05:33.427Z,14.22
2022-11-09T17:08:07.599Z,14.21
2022-11-09T17:10:43.486Z,14.10
2022-11-09T17:13:16.569Z,13.88
2022-11-09T17:15:53.589Z,14.28
2022-11-09T17:18:27.522Z,14.15
2022-11-09T17:21:02.556Z,14.03
2022-11-09T17:23:36.127Z,14.25
2022-11-09T17:26:10.944Z,14.16
2022-11-09T17:28:44.661Z,14.08
2022-11-09T17:31:20.098Z,13.99
2022-11-09T17:33:57.020Z,14.15
2022-11-09T17:37:02.445Z,14.03
2022-11-09T17:39:29.255Z,13.98
2022-11-09T17:42:02.808Z,14.02
2022-11-09T17:44:37.026Z,13.74
2022-11-09T17:47:09.857Z,13.94
2022-11-09T17:49:43.813Z,13.93
2022-11-09T17:52:19.117Z,13.72
2022-11-09T17:54:52.865Z,13.81
2022-11-09T17:57:26.442Z,13.79
2022-11-09T18:00:00.798Z,13.57
2022-11-09T18:02:35.454Z,13.74
2022-11-09T18:05:10.971Z,13.75
2022-11-09T18:07:46.079Z,13.63
2022-11-09T18:10:20.078Z,13.66
2022-11-09T18:12:53.782Z,13.66
2022-11-09T18:15:27.040Z,13.55
2022-11-09T18:18:00.895Z,13.60
2022-11-09T18:20:34.884Z,13.62
2022-11-09T18:23:09.351Z,13.54
2022-11-09T18:25:43.384Z,13.46
2022-11-09T18:28:16.946Z,13.53
2022-11-09T18:30:50.875Z,13.44
2022-11-09T18:33:23.698Z,13.39
2022-11-09T18:35:58.907Z,13.06
2022-11-09T18:38:34.266Z,13.19
2022-11-09T18:41:09.988Z,13.12
2022-11-09T18:43:43.150Z,13.01
2022-11-09T18:46:18.643Z,12.94
2022-11-09T18:48:53.185Z,12.83
2022-11-09T18:51:26.922Z,12.97
2022-11-09T18:54:02.154Z,12.93
2022-11-09T18:56:35.781Z,12.78
2022-11-09T18:59:11.918Z,13.07
2022-11-09T19:01:45.608Z,12.97
2022-11-09T19:04:19.673Z,12.72
2022-11-09T19:06:54.611Z,13.06
2022-11-09T19:09:35.710Z,12.98
2022-11-09T19:12:11.866Z,13.25
2022-11-09T19:14:45.442Z,12.92
2022-11-09T19:17:18.391Z,13.40
2022-11-09T19:19:51.970Z,13.45
2022-11-09T19:22:29.147Z,13.65
2022-11-09T19:25:04.323Z,13.62
2022-11-09T19:27:38.009Z,13.77
2022-11-09T19:30:11.822Z,13.66
2022-11-09T19:32:45.341Z,13.62
2022-11-09T19:35:24.820Z,13.51
2022-11-09T19:38:05.116Z,13.37
2022-11-09T19:40:40.728Z,13.34
2022-11-09T19:43:13.751Z,13.30
2022-11-09T19:45:47.395Z,13.26
2022-11-09T19:48:21.407Z,13.48
2022-11-09T19:50:55.453Z,13.10
2022-11-09T19:53:30.618Z,13.34
2022-11-09T19:56:08.894Z,13.44
2022-11-09T19:58:42.678Z,13.06
2022-11-09T20:01:16.395Z,13.21
2022-11-09T20:03:50.945Z,13.02
2022-11-09T20:06:25.773Z,13.08
2022-11-09T20:09:00.916Z,13.10
2022-11-09T20:11:53.509Z,13.09
2022-11-09T20:14:27.226Z,12.98
2022-11-09T20:17:03.572Z,13.32
2022-11-09T20:19:37.456Z,12.99
2022-11-09T20:22:11.064Z,13.43
2022-11-09T20:24:43.925Z,13.28
2022-11-09T20:27:18.642Z,13.09
2022-11-09T20:29:52.327Z,12.82
2022-11-09T20:32:26.752Z,13.19
2022-11-09T20:35:00.750Z,13.14
2022-11-09T20:37:34.504Z,13.23
2022-11-09T20:40:08.844Z,13.33
2022-11-09T20:42:44.130Z,13.29
2022-11-09T20:45:17.882Z,13.38
2022-11-09T20:48:10.186Z,13.52
2022-11-09T20:50:44.375Z,13.60
2022-11-09T20:53:17.964Z,13.52
2022-11-09T20:55:54.533Z,13.70
2022-11-09T20:58:29.672Z,13.58
2022-11-09T21:01:07.696Z,13.59
2022-11-09T21:03:40.644Z,13.82
2022-11-09T21:06:15.355Z,13.89
2022-11-09T21:08:51.293Z,13.83
2022-11-09T21:11:29.110Z,13.83
2022-11-09T21:14:04.861Z,13.73
2022-11-09T21:16:38.438Z,13.77
2022-11-09T21:19:12.149Z,13.44
2022-11-09T21:21:45.838Z,13.92
2022-11-09T21:24:33.164Z,13.95
2022-11-09T21:27:23.131Z,13.91
2022-11-09T21:29:58.214Z,13.89
2022-11-09T21:32:32.321Z,14.07
2022-11-09T21:35:06.846Z,14.18
2022-11-09T21:37:39.710Z,14.11
2022-11-09T21:40:13.870Z,14.06
2022-11-09T21:42:47.655Z,13.97
2022-11-09T21:45:22.778Z,13.97
2022-11-09T21:47:56.612Z,14.25
2022-11-09T21:50:30.236Z,14.00
2022-11-09T21:53:03.436Z,13.85
2022-11-09T21:55:36.263Z,14.21
2022-11-09T21:58:09.393Z,13.97
2022-11-09T22:00:44.418Z,14.26
2022-11-09T22:03:17.327Z,14.06
2022-11-09T22:05:50.620Z,14.38
2022-11-09T22:08:24.473Z,14.25
2022-11-09T22:11:05.500Z,13.89
2022-11-09T22:13:56.588Z,14.21
2022-11-09T22:16:33.604Z,14.01
2022-11-09T22:19:24.662Z,14.20
2022-11-09T22:21:57.486Z,14.08
2022-11-09T22:24:30.636Z,14.06
2022-11-09T22:27:03.699Z,14.03
2022-11-09T22:29:37.558Z,14.17
2022-11-09T22:32:12.583Z,14.10
2022-11-09T22:34:46.381Z,13.91
2022-11-09T22:37:19.955Z,14.17
2022-11-09T22:39:52.970Z,14.20
2022-11-09T22:42:26.348Z,13.99
2022-11-09T22:45:00.032Z,14.10
2022-11-09T22:47:35.214Z,14.27
2022-11-09T22:50:09.701Z,14.30
2022-11-09T22:52:43.268Z,14.41
2022-11-09T22:55:18.742Z,14.40
2022-11-09T22:57:55.477Z,14.31
2022-11-09T23:00:29.211Z,14.25
2022-11-09T23:03:04.317Z,14.04
2022-11-09T23:05:38.021Z,14.11
2022-11-09T23:08:12.248Z,14.10
2022-11-09T23:10:45.776Z,14.22
2022-11-09T23:13:19.688Z,14.04
2022-11-09T23:15:58.221Z,14.04
2022-11-09T23:18:50.680Z,14.12
2022-11-09T23:21:27.032Z,13.97
2022-11-09T23:24:01.768Z,14.00
2022-11-09T23:26:36.104Z,14.10
2022-11-09T23:29:09.771Z,14.07
2022-11-09T23:31:43.515Z,14.11
2022-11-09T23:34:18.506Z,14.15
2022-11-09T23:36:51.388Z,14.10
2022-11-09T23:39:24.925Z,14.43
2022-11-09T23:41:58.720Z,14.56
2022-11-09T23:44:32.755Z,14.25
2022-11-09T23:47:05.713Z,14.40
2022-11-09T23:49:40.846Z,14.42
2022-11-09T23:52:15.091Z,14.53
2022-11-09T23:54:48.710Z,14.26
2022-11-09T23:57:22.491Z,14.44
2022-11-09T23:59:56.138Z,14.62
